Time;durP1;ratioP1;P1;durP2;ratioP2;P2;SDS_P1;SDS_P2;PMS_P1;PMS_P2;Temp;Humidity;BMP_temperature;BMP_pressure;BME280_temperature;BME280_humidity;BME280_pressure;Samples;Min_cycle;Max_cycle;Signal;HPM_P1;HPM_P2
2022/07/21 00:01:55;;;;;;;16.40;14.52;;;20.10;99.90;;;;;;5001843;28;20034;-80
2022/07/21 00:04:22;;;;;;;17.02;14.77;;;20.00;99.90;;;;;;4951893;28;20056;-80
2022/07/21 00:06:48;;;;;;;21.17;17.13;;;20.00;99.90;;;;;;4969353;28;20129;-80
2022/07/21 00:09:14;;;;;;;18.98;16.15;;;20.00;99.90;;;;;;4984974;28;20107;-80
2022/07/21 00:11:41;;;;;;;19.00;17.00;;;20.00;99.90;;;;;;4952016;28;20049;-80
2022/07/21 00:14:09;;;;;;;18.15;15.63;;;20.00;99.90;;;;;;4971922;28;20056;-81
2022/07/21 00:16:39;;;;;;;23.13;17.77;;;20.00;99.90;;;;;;4968513;28;20048;-81
2022/07/21 00:19:06;;;;;;;17.08;15.00;;;20.00;99.90;;;;;;4953955;28;20114;-81
2022/07/21 00:21:32;;;;;;;19.65;17.17;;;19.90;99.90;;;;;;5003877;28;20557;-81
2022/07/21 00:23:58;;;;;;;26.38;17.92;;;19.90;99.90;;;;;;4950129;28;20042;-81
2022/07/21 00:26:24;;;;;;;23.65;17.85;;;19.90;99.90;;;;;;4965040;28;20465;-81
2022/07/21 00:28:50;;;;;;;18.92;15.80;;;19.80;99.90;;;;;;4985549;28;20053;-81
2022/07/21 00:31:16;;;;;;;20.20;16.10;;;19.80;99.90;;;;;;4971062;28;20166;-81
2022/07/21 00:33:42;;;;;;;19.52;16.75;;;19.70;99.90;;;;;;4984506;28;20049;-81
2022/07/21 00:36:08;;;;;;;23.38;18.35;;;19.70;99.90;;;;;;4972206;28;20056;-81
2022/07/21 00:38:35;;;;;;;24.08;21.48;;;19.60;99.90;;;;;;4986343;28;20049;-81
2022/07/21 00:41:01;;;;;;;20.75;18.63;;;19.60;99.90;;;;;;4984270;28;20385;-81
2022/07/21 00:43:27;;;;;;;23.75;20.45;;;19.60;99.90;;;;;;4951533;28;20058;-80
2022/07/21 00:45:54;;;;;;;23.02;19.58;;;19.50;99.90;;;;;;4968501;28;20068;-81
2022/07/21 00:48:21;;;;;;;30.85;20.88;;;19.50;99.90;;;;;;4986534;28;20132;-81
2022/07/21 00:50:47;;;;;;;23.73;20.52;;;19.50;99.90;;;;;;4955260;28;20480;-80
2022/07/21 00:53:14;;;;;;;27.08;19.85;;;19.40;99.90;;;;;;4953841;28;20041;-81
2022/07/21 00:55:43;;;;;;;30.40;19.98;;;19.40;99.90;;;;;;4949757;28;20760;-80
2022/07/21 00:58:09;;;;;;;27.70;20.17;;;19.30;99.90;;;;;;4972167;28;20077;-81
2022/07/21 01:00:36;;;;;;;27.20;20.17;;;19.30;99.90;;;;;;4985367;28;20056;-80
2022/07/21 01:03:02;;;;;;;36.03;23.83;;;19.30;99.90;;;;;;4983730;28;20736;-80
2022/07/21 01:05:28;;;;;;;43.00;26.50;;;19.30;99.90;;;;;;4948822;28;20088;-81
2022/07/21 01:07:55;;;;;;;46.47;26.60;;;19.30;99.90;;;;;;4983742;28;20080;-80
2022/07/21 01:10:24;;;;;;;47.22;28.40;;;19.20;99.90;;;;;;4970312;28;20725;-79
2022/07/21 01:12:50;;;;;;;33.38;25.48;;;19.20;99.90;;;;;;4976496;28;20508;-80
2022/07/21 01:15:18;;;;;;;67.05;32.70;;;19.20;99.90;;;;;;4936595;28;20611;-80
2022/07/21 01:17:45;;;;;;;44.97;29.52;;;19.20;99.90;;;;;;4985353;28;20518;-80
2022/07/21 01:20:15;;;;;;;44.35;29.02;;;19.30;99.90;;;;;;4982826;28;20044;-80
2022/07/21 01:22:43;;;;;;;34.53;25.67;;;19.30;99.90;;;;;;4970027;28;20489;-81
2022/07/21 01:25:10;;;;;;;36.20;25.98;;;19.20;99.90;;;;;;4979263;28;20041;-79
2022/07/21 01:27:36;;;;;;;55.85;30.95;;;19.20;99.90;;;;;;4953108;28;20127;-80
2022/07/21 01:30:07;;;;;;;34.95;25.48;;;19.20;99.90;;;;;;4972001;28;20045;-80
2022/07/21 01:32:33;;;;;;;30.92;23.70;;;19.10;99.90;;;;;;4980863;28;20159;-80
2022/07/21 01:34:59;;;;;;;30.13;23.20;;;19.10;99.90;;;;;;4984631;28;20041;-81
2022/07/21 01:37:28;;;;;;;47.42;29.98;;;19.00;99.90;;;;;;4951973;28;20413;-80
2022/07/21 01:42:40;;;;;;;48.35;28.95;;;19.00;99.90;;;;;;5005117;28;20073;-80
2022/07/21 01:45:07;;;;;;;33.25;24.88;;;19.00;99.90;;;;;;4969566;28;20056;-80
2022/07/21 01:47:34;;;;;;;48.25;28.27;;;19.00;99.90;;;;;;4996390;28;20684;-80
2022/07/21 01:50:01;;;;;;;43.60;24.67;;;18.90;99.90;;;;;;4961565;28;20397;-79
2022/07/21 01:52:27;;;;;;;86.43;37.70;;;18.90;99.90;;;;;;4964780;28;20085;-80
2022/07/21 01:54:53;;;;;;;75.10;35.90;;;18.90;99.90;;;;;;4988511;28;20052;-80
2022/07/21 01:57:19;;;;;;;57.95;29.58;;;18.80;99.90;;;;;;4983558;28;20525;-81
2022/07/21 01:59:46;;;;;;;39.45;28.52;;;18.80;99.90;;;;;;4970303;28;20115;-80
2022/07/21 02:02:12;;;;;;;38.70;28.10;;;18.70;99.90;;;;;;4970553;28;20047;-80
2022/07/21 02:04:38;;;;;;;48.03;31.00;;;18.70;99.90;;;;;;4952100;28;20067;-78
2022/07/21 02:07:04;;;;;;;244.43;57.03;;;18.70;99.90;;;;;;4953020;28;20565;-78
2022/07/21 02:09:31;;;;;;;53.20;32.78;;;18.70;99.90;;;;;;4998744;28;20255;-79
2022/07/21 02:11:58;;;;;;;34.30;26.02;;;18.70;99.90;;;;;;4948684;28;20050;-79
2022/07/21 02:14:24;;;;;;;47.60;30.85;;;18.70;99.90;;;;;;4968643;28;20156;-80
2022/07/21 02:16:50;;;;;;;44.75;30.63;;;18.80;99.90;;;;;;4970341;28;20139;-80
2022/07/21 02:19:16;;;;;;;37.33;28.25;;;18.80;99.90;;;;;;4999585;28;20074;-80
2022/07/21 02:21:42;;;;;;;52.00;31.92;;;18.80;99.90;;;;;;4950120;28;20046;-81
2022/07/21 02:24:12;;;;;;;34.55;27.27;;;18.80;99.90;;;;;;4982093;28;20044;-80
2022/07/21 02:26:38;;;;;;;40.58;28.90;;;18.80;99.90;;;;;;4969664;28;20057;-81
2022/07/21 02:29:04;;;;;;;57.15;33.60;;;18.80;99.90;;;;;;4963081;28;20111;-80
2022/07/21 02:31:32;;;;;;;61.33;32.95;;;18.70;99.90;;;;;;4952209;28;20056;-79
2022/07/21 02:33:58;;;;;;;93.10;37.65;;;18.80;99.90;;;;;;4983771;28;20053;-81
2022/07/21 02:36:24;;;;;;;45.58;30.88;;;18.70;99.90;;;;;;4970261;28;20067;-81
2022/07/21 02:38:50;;;;;;;48.00;30.25;;;18.70;99.90;;;;;;4984327;28;20576;-82
2022/07/21 02:41:16;;;;;;;83.63;37.38;;;18.70;99.90;;;;;;4966954;28;20044;-82
2022/07/21 02:43:43;;;;;;;56.17;32.45;;;18.70;99.90;;;;;;4984381;28;20053;-81
2022/07/21 02:46:09;;;;;;;75.25;35.60;;;18.70;99.90;;;;;;4985657;28;20373;-82
2022/07/21 02:48:35;;;;;;;43.55;30.20;;;18.70;99.90;;;;;;4953793;28;20604;-81
2022/07/21 02:51:02;;;;;;;39.20;31.58;;;18.70;99.90;;;;;;4967846;28;20037;-83
2022/07/21 02:53:28;;;;;;;48.35;31.65;;;18.70;99.90;;;;;;4968424;28;20383;-83
2022/07/21 02:55:54;;;;;;;43.95;31.92;;;18.70;99.90;;;;;;4969095;28;20048;-83
2022/07/21 02:58:26;;;;;;;63.28;33.83;;;18.70;99.90;;;;;;4972364;28;20565;-83
2022/07/21 03:01:04;;;;;;;96.78;40.67;;;18.70;99.90;;;;;;4982591;28;20612;-82
2022/07/21 03:03:35;;;;;;;50.45;33.50;;;18.70;99.90;;;;;;4969222;28;20761;-82
2022/07/21 03:06:05;;;;;;;46.38;34.13;;;18.60;99.90;;;;;;4967124;28;20116;-82
2022/07/21 03:08:33;;;;;;;49.38;33.30;;;18.60;99.90;;;;;;4986743;28;20067;-83
2022/07/21 03:10:59;;;;;;;50.13;34.05;;;18.60;99.90;;;;;;4985098;28;20539;-83
2022/07/21 03:13:25;;;;;;;56.20;35.85;;;18.60;99.90;;;;;;4987858;28;20048;-82
2022/07/21 03:15:51;;;;;;;49.47;33.72;;;18.60;99.90;;;;;;5003983;28;20072;-83
2022/07/21 03:18:17;;;;;;;48.63;35.28;;;18.60;99.90;;;;;;4989179;28;20787;-84
2022/07/21 03:20:44;;;;;;;70.40;42.00;;;18.50;99.90;;;;;;4949360;28;20449;-84
2022/07/21 03:23:10;;;;;;;55.70;38.53;;;18.50;99.90;;;;;;4957516;28;20041;-83
2022/07/21 03:25:37;;;;;;;53.47;38.58;;;18.50;99.90;;;;;;4978679;28;20061;-83
2022/07/21 03:28:03;;;;;;;61.50;40.50;;;18.60;99.90;;;;;;4990918;28;20579;-83
2022/07/21 03:30:30;;;;;;;51.63;38.75;;;18.50;99.90;;;;;;4986313;28;20053;-84
2022/07/21 03:32:57;;;;;;;67.18;44.40;;;18.60;99.90;;;;;;4986362;28;20046;-83
2022/07/21 03:35:23;;;;;;;58.30;41.58;;;18.50;99.90;;;;;;4989972;28;20050;-82
2022/07/21 03:37:58;;;;;;;81.22;44.90;;;18.60;99.90;;;;;;4988475;28;20045;-81
2022/07/21 03:40:27;;;;;;;101.97;47.30;;;18.60;99.90;;;;;;5003036;28;20120;-82
2022/07/21 03:42:55;;;;;;;67.00;43.55;;;18.60;99.90;;;;;;4965070;28;20383;-83
2022/07/21 03:45:22;;;;;;;70.50;41.75;;;18.60;99.90;;;;;;4985605;28;20046;-83
2022/07/21 03:47:48;;;;;;;73.45;43.88;;;18.60;99.90;;;;;;5000536;28;20572;-83
2022/07/21 03:50:17;;;;;;;103.45;49.90;;;18.60;99.90;;;;;;4973063;28;20080;-83
2022/07/21 03:52:47;;;;;;;52.88;39.47;;;18.60;99.90;;;;;;4971252;28;20080;-82
2022/07/21 03:55:18;;;;;;;80.00;46.60;;;18.60;99.90;;;;;;4957725;28;20077;-84
2022/07/21 03:57:46;;;;;;;72.57;44.97;;;18.60;99.90;;;;;;4970236;28;20146;-83
2022/07/21 04:00:22;;;;;;;69.53;47.08;;;18.60;99.90;;;;;;4988548;28;20049;-83
2022/07/21 04:02:48;;;;;;;73.70;49.90;;;18.60;99.90;;;;;;4995081;28;20046;-83
2022/07/21 04:05:16;;;;;;;83.50;54.97;;;18.60;99.90;;;;;;4947781;28;20037;-83
2022/07/21 04:07:44;;;;;;;81.60;52.08;;;18.70;99.90;;;;;;4986780;28;20133;-83
2022/07/21 04:10:12;;;;;;;88.00;55.50;;;18.70;99.90;;;;;;4988713;28;20057;-83
2022/07/21 04:12:39;;;;;;;82.90;58.25;;;18.70;99.90;;;;;;4985117;28;20053;-84
2022/07/21 04:15:07;;;;;;;78.45;55.63;;;18.80;99.90;;;;;;4968828;28;20060;-82
2022/07/21 04:17:33;;;;;;;66.63;53.85;;;18.70;99.90;;;;;;4970869;28;20041;-84
2022/07/21 04:20:00;;;;;;;66.20;52.38;;;18.80;99.90;;;;;;4944321;28;20451;-83
2022/07/21 04:22:26;;;;;;;67.80;55.63;;;18.70;99.90;;;;;;4973623;28;20044;-87
2022/07/21 04:24:52;;;;;;;70.93;58.45;;;18.70;99.90;;;;;;4968603;28;20390;-86
2022/07/21 04:27:18;;;;;;;76.13;58.45;;;18.70;99.90;;;;;;4955045;28;20454;-86
2022/07/21 04:29:47;;;;;;;81.13;59.85;;;18.70;99.90;;;;;;4987846;28;20077;-88
2022/07/21 04:32:15;;;;;;;81.40;62.33;;;18.80;99.90;;;;;;4972870;28;20556;-88
2022/07/21 04:34:41;;;;;;;77.57;57.88;;;18.80;99.90;;;;;;4949501;28;20480;-87
2022/07/21 04:37:07;;;;;;;59.88;51.30;;;18.80;99.90;;;;;;4967705;28;20060;-87
2022/07/21 04:39:33;;;;;;;56.63;49.97;;;18.80;99.90;;;;;;4971406;28;20477;-84
2022/07/21 04:41:59;;;;;;;60.53;51.97;;;18.70;99.90;;;;;;4955610;28;20124;-86
2022/07/21 04:44:26;;;;;;;68.78;53.10;;;18.80;99.90;;;;;;4969177;28;20461;-87
2022/07/21 04:46:52;;;;;;;72.00;54.60;;;18.80;99.90;;;;;;4964296;28;20042;-87
2022/07/21 04:49:18;;;;;;;73.43;55.25;;;18.80;99.90;;;;;;4966964;28;20046;-86
2022/07/21 04:51:44;;;;;;;76.18;55.10;;;18.80;99.90;;;;;;4971716;28;20041;-86
2022/07/21 04:54:13;;;;;;;62.88;51.83;;;18.80;99.90;;;;;;4980507;28;20056;-86
2022/07/21 04:56:46;;;;;;;65.20;51.75;;;18.80;99.90;;;;;;4965177;28;20568;-87
2022/07/21 04:59:13;;;;;;;59.80;48.50;;;18.80;99.90;;;;;;4971133;28;20811;-86
2022/07/21 05:01:39;;;;;;;62.15;51.72;;;18.80;99.90;;;;;;4970509;28;20048;-87
2022/07/21 05:04:07;;;;;;;67.75;54.53;;;18.80;99.90;;;;;;4976209;28;20042;-86
2022/07/21 05:06:34;;;;;;;72.68;57.40;;;18.90;99.90;;;;;;4971411;28;20044;-86
2022/07/21 05:09:00;;;;;;;78.03;59.20;;;18.90;99.90;;;;;;4964259;28;20047;-87
2022/07/21 05:11:26;;;;;;;61.03;50.92;;;18.90;99.90;;;;;;4986014;28;20071;-87
2022/07/21 05:13:52;;;;;;;68.78;55.85;;;18.90;99.90;;;;;;4970653;28;20474;-87
2022/07/21 05:16:19;;;;;;;56.95;50.83;;;18.90;99.90;;;;;;4964758;28;20564;-87
2022/07/21 05:18:45;;;;;;;66.95;54.17;;;18.90;99.90;;;;;;4965108;28;20373;-87
2022/07/21 05:21:11;;;;;;;68.40;54.15;;;19.00;99.90;;;;;;4948460;28;20046;-87
2022/07/21 05:23:37;;;;;;;67.50;53.72;;;19.00;99.90;;;;;;4978048;28;20053;-87
2022/07/21 05:26:03;;;;;;;70.50;56.47;;;19.00;99.90;;;;;;4995817;28;20313;-87
2022/07/21 05:28:30;;;;;;;55.70;49.90;;;19.10;99.90;;;;;;4970264;28;20531;-85
2022/07/21 05:30:57;;;;;;;68.35;54.65;;;19.10;99.90;;;;;;4969019;28;20152;-86
2022/07/21 05:33:23;;;;;;;63.17;52.17;;;19.20;99.90;;;;;;4963793;28;20132;-81
2022/07/21 05:35:49;;;;;;;56.92;50.78;;;19.20;99.90;;;;;;4981372;28;20037;-86
2022/07/21 05:38:15;;;;;;;72.55;65.60;;;19.20;99.90;;;;;;4988988;28;20049;-83
2022/07/21 05:40:41;;;;;;;56.33;50.72;;;19.30;99.90;;;;;;4969617;28;20061;-83
2022/07/21 05:43:08;;;;;;;55.28;49.67;;;19.40;99.90;;;;;;4969556;28;20449;-82
2022/07/21 05:45:34;;;;;;;51.85;46.90;;;19.50;99.90;;;;;;4970813;28;20451;-83
2022/07/21 05:48:01;;;;;;;54.30;48.88;;;19.60;99.90;;;;;;4968834;28;20488;-83
2022/07/21 05:50:27;;;;;;;50.22;45.30;;;19.80;99.90;;;;;;4971162;28;20048;-82
2022/07/21 05:52:53;;;;;;;50.15;45.33;;;19.90;99.90;;;;;;4986699;28;20136;-82
2022/07/21 05:55:20;;;;;;;47.25;42.88;;;20.10;99.90;;;;;;4966181;28;20473;-82
2022/07/21 05:57:46;;;;;;;56.78;51.65;;;20.40;99.90;;;;;;4981146;28;20112;-85
2022/07/21 06:00:12;;;;;;;70.53;64.22;;;20.70;99.90;;;;;;4936949;28;20049;-85
2022/07/21 06:02:38;;;;;;;53.83;49.10;;;20.70;99.90;;;;;;4969595;28;20057;-84
2022/07/21 06:05:07;;;;;;;43.20;39.30;;;20.80;99.90;;;;;;4969780;28;20041;-85
2022/07/21 06:07:33;;;;;;;44.05;40.08;;;20.80;99.90;;;;;;4967141;28;20045;-85
2022/07/21 06:10:00;;;;;;;41.05;37.45;;;20.90;99.90;;;;;;4982590;28;20124;-85
2022/07/21 06:12:27;;;;;;;43.75;39.80;;;20.90;99.90;;;;;;4969617;28;20160;-85
2022/07/21 06:14:55;;;;;;;43.10;39.00;;;20.90;99.90;;;;;;4970131;28;20103;-83
2022/07/21 06:17:22;;;;;;;42.80;39.00;;;20.80;99.90;;;;;;4981930;28;20049;-80
2022/07/21 06:19:48;;;;;;;39.40;35.72;;;20.60;99.90;;;;;;4965853;28;20041;-80
2022/07/21 06:22:14;;;;;;;37.50;34.13;;;20.60;99.90;;;;;;4997071;28;20041;-82
2022/07/21 06:24:40;;;;;;;39.22;35.60;;;20.50;99.90;;;;;;4951773;28;20130;-82
2022/07/21 06:27:09;;;;;;;36.40;33.05;;;20.40;99.90;;;;;;4967854;28;20053;-81
2022/07/21 06:29:35;;;;;;;74.60;67.47;;;20.30;99.90;;;;;;4981406;28;20041;-86
2022/07/21 06:32:02;;;;;;;43.15;39.15;;;20.30;99.90;;;;;;4952582;28;20056;-86
2022/07/21 06:34:28;;;;;;;39.28;35.50;;;20.20;99.90;;;;;;4970929;28;20050;-85
2022/07/21 06:36:54;;;;;;;34.45;31.35;;;20.10;99.90;;;;;;4959471;28;20040;-79
2022/07/21 06:39:20;;;;;;;36.53;33.13;;;20.00;99.90;;;;;;4967769;28;20076;-82
2022/07/21 06:41:46;;;;;;;97.15;88.22;;;20.00;99.90;;;;;;5003201;28;20044;-85
2022/07/21 06:44:12;;;;;;;39.65;35.70;;;19.90;99.90;;;;;;4948296;28;20058;-85
2022/07/21 06:46:39;;;;;;;39.72;36.03;;;19.80;99.90;;;;;;4985653;28;20033;-85
2022/07/21 06:49:05;;;;;;;41.53;37.47;;;19.80;99.90;;;;;;4957611;28;20049;-84
2022/07/21 06:51:31;;;;;;;41.47;37.10;;;19.80;99.90;;;;;;4981454;28;20585;-85
2022/07/21 06:53:57;;;;;;;40.88;37.08;;;19.80;99.90;;;;;;4971564;28;20052;-87
2022/07/21 06:56:23;;;;;;;44.38;39.97;;;19.90;99.90;;;;;;4989018;28;20045;-84
2022/07/21 06:58:49;;;;;;;42.35;38.55;;;19.90;99.90;;;;;;4961495;28;22364;-86
2022/07/21 07:01:18;;;;;;;43.25;39.35;;;20.00;99.90;;;;;;4977342;28;20045;-84
2022/07/21 07:03:44;;;;;;;41.70;37.80;;;20.00;99.90;;;;;;4966634;28;20041;-85
2022/07/21 07:06:11;;;;;;;44.22;39.83;;;20.00;99.90;;;;;;5002213;28;20084;-86
2022/07/21 07:08:39;;;;;;;202.23;184.77;;;20.00;99.90;;;;;;4957342;28;20266;-77
2022/07/21 07:11:06;;;;;;;254.40;229.82;;;20.20;99.90;;;;;;4970550;28;20053;-85
2022/07/21 07:13:32;;;;;;;55.88;50.20;;;20.20;99.90;;;;;;4993303;28;20079;-83
2022/07/21 07:16:00;;;;;;;43.60;39.35;;;20.30;99.90;;;;;;4983326;28;20106;-89
2022/07/21 07:18:26;;;;;;;46.85;42.40;;;20.10;99.90;;;;;;4963390;28;20100;-90
2022/07/21 07:20:52;;;;;;;44.22;40.03;;;20.20;99.90;;;;;;5000928;28;20862;-87
2022/07/21 07:23:18;;;;;;;48.53;43.67;;;20.20;99.90;;;;;;4958785;28;20052;-91
2022/07/21 07:25:44;;;;;;;46.47;42.05;;;20.20;99.90;;;;;;4992979;28;20037;-90
2022/07/21 07:28:11;;;;;;;47.22;42.63;;;20.30;99.90;;;;;;4985080;28;20068;-90
2022/07/21 07:30:37;;;;;;;47.78;42.75;;;20.50;99.90;;;;;;4986655;28;20114;-90
2022/07/21 07:33:03;;;;;;;46.92;42.22;;;20.70;99.90;;;;;;4961532;28;20082;-88
2022/07/21 07:35:29;;;;;;;46.42;42.03;;;20.80;99.90;;;;;;4996847;28;20042;-90
2022/07/21 07:37:55;;;;;;;48.03;43.20;;;20.90;99.90;;;;;;4964335;28;20049;-91
2022/07/21 07:40:23;;;;;;;48.17;43.40;;;20.90;99.90;;;;;;4975347;28;20060;-90
2022/07/21 07:42:50;;;;;;;48.58;44.17;;;20.90;99.90;;;;;;5011086;28;20120;-89
2022/07/21 07:45:16;;;;;;;47.63;42.53;;;20.90;99.90;;;;;;4979320;28;20049;-89
2022/07/21 07:47:46;;;;;;;46.78;42.15;;;21.00;99.90;;;;;;4976511;28;20128;-89
2022/07/21 07:50:16;;;;;;;49.47;44.20;;;21.00;99.90;;;;;;5011378;28;20045;-91
2022/07/21 07:52:46;;;;;;;48.83;44.15;;;21.10;99.90;;;;;;4959854;28;20128;-88
2022/07/21 07:55:26;;;;;;;58.10;52.30;;;21.20;99.90;;;;;;4990209;28;20079;-90
2022/07/21 08:01:35;;;;;;;44.38;40.22;;;22.20;99.90;;;;;;4966922;28;20481;-88
2022/07/21 08:04:02;;;;;;;44.30;40.00;;;23.00;99.90;;;;;;4956986;28;20041;-90
2022/07/21 08:06:46;;;;;;;41.88;37.97;;;23.70;99.90;;;;;;4971072;28;20046;-89
2022/07/21 08:13:39;;;;;;;37.97;34.38;;;24.10;99.90;;;;;;5017046;28;20112;-90
2022/07/21 08:16:05;;;;;;;41.40;37.40;;;24.40;99.90;;;;;;5011690;28;20072;-89
2022/07/21 08:18:34;;;;;;;38.03;34.30;;;25.10;99.90;;;;;;5002976;28;20314;-82
2022/07/21 08:21:00;;;;;;;33.53;30.63;;;25.50;99.90;;;;;;4969570;28;20258;-86
2022/07/21 08:23:32;;;;;;;34.17;31.20;;;25.90;99.90;;;;;;5006343;28;20041;-86
2022/07/21 08:26:03;;;;;;;29.13;26.63;;;26.00;99.90;;;;;;4989344;28;20042;-85
2022/07/21 08:28:49;;;;;;;29.75;27.35;;;26.00;99.90;;;;;;4993326;28;20894;-84
2022/07/21 08:31:47;;;;;;;28.20;25.80;;;26.00;99.90;;;;;;4940985;28;20054;-85
2022/07/21 08:35:12;;;;;;;24.83;22.73;;;26.10;99.90;;;;;;4888419;29;20139;-89
2022/07/21 08:37:59;;;;;;;24.38;22.40;;;26.70;99.90;;;;;;4862517;29;20379;-88
2022/07/21 08:40:38;;;;;;;39.45;36.00;;;26.90;99.90;;;;;;4955777;28;20073;-91
2022/07/21 08:43:06;;;;;;;27.00;24.58;;;26.60;99.90;;;;;;4978146;28;20035;-91
2022/07/21 08:45:35;;;;;;;33.60;30.60;;;26.70;99.90;;;;;;4929253;28;20316;-90
2022/07/21 08:48:01;;;;;;;52.08;47.63;;;25.90;99.90;;;;;;4927597;28;20070;-89
2022/07/21 08:50:31;;;;;;;34.72;31.73;;;25.60;99.90;;;;;;4952106;28;20074;-90
2022/07/21 08:52:57;;;;;;;27.40;25.00;;;25.10;99.90;;;;;;4932544;28;20082;-89
2022/07/21 08:55:39;;;;;;;28.63;25.92;;;25.20;99.90;;;;;;4928370;28;20034;-89
2022/07/21 08:58:08;;;;;;;28.08;25.58;;;25.90;99.90;;;;;;4911665;28;20108;-89
2022/07/21 09:00:40;;;;;;;27.83;25.40;;;26.30;99.90;;;;;;4938041;28;20116;-89
2022/07/21 09:03:26;;;;;;;27.40;24.85;;;26.20;99.90;;;;;;4972443;28;20586;-86
2022/07/21 09:06:21;;;;;;;26.45;24.20;;;26.20;99.90;;;;;;4954987;28;20189;-88
2022/07/21 09:08:54;;;;;;;30.05;27.65;;;26.80;99.90;;;;;;4962277;28;20075;-88
2022/07/21 09:11:28;;;;;;;26.23;24.02;;;26.60;99.90;;;;;;4948270;28;20053;-88
2022/07/21 09:14:11;;;;;;;28.77;26.27;;;26.40;99.90;;;;;;4961981;28;20065;-88
2022/07/21 09:16:44;;;;;;;26.52;24.25;;;26.00;99.90;;;;;;4963344;28;20065;-87
2022/07/21 09:19:25;;;;;;;27.60;25.20;;;25.70;99.90;;;;;;4932196;28;20105;-86
2022/07/21 09:21:54;;;;;;;28.63;26.13;;;25.30;99.90;;;;;;4976981;28;20046;-82
2022/07/21 09:24:29;;;;;;;35.05;31.95;;;24.90;99.90;;;;;;4929993;28;20042;-84
2022/07/21 09:27:07;;;;;;;31.10;28.33;;;24.70;99.90;;;;;;4944966;28;20038;-83
2022/07/21 09:29:49;;;;;;;27.38;24.85;;;24.30;99.90;;;;;;4960562;28;20355;-85
2022/07/21 09:32:29;;;;;;;20.90;19.10;;;24.20;99.90;;;;;;4977613;28;20362;-84
2022/07/21 09:35:09;;;;;;;24.13;22.02;;;24.10;99.90;;;;;;4971026;28;20085;-84
2022/07/21 09:37:37;;;;;;;25.05;22.45;;;24.20;99.90;;;;;;4946195;28;20125;-83
2022/07/21 09:40:14;;;;;;;24.85;22.50;;;24.40;99.90;;;;;;4947388;28;20736;-83
2022/07/21 09:42:51;;;;;;;25.27;22.85;;;24.50;99.90;;;;;;4947053;28;20085;-83
2022/07/21 09:45:19;;;;;;;25.10;22.90;;;24.10;99.90;;;;;;4963735;28;20053;-84
2022/07/21 09:47:46;;;;;;;26.90;24.27;;;23.80;99.90;;;;;;4965386;28;20045;-84
2022/07/21 09:50:14;;;;;;;25.95;23.63;;;23.70;99.90;;;;;;4963789;28;20045;-82
2022/07/21 09:52:43;;;;;;;26.35;23.85;;;23.60;99.90;;;;;;4997469;28;20226;-86
2022/07/21 09:55:15;;;;;;;27.33;24.77;;;23.50;99.90;;;;;;4950631;28;20468;-82
2022/07/21 09:57:42;;;;;;;33.17;29.42;;;23.60;99.90;;;;;;4998225;28;20054;-82
2022/07/21 10:00:12;;;;;;;36.80;33.30;;;23.60;99.90;;;;;;4965892;28;20046;-81
2022/07/21 10:02:38;;;;;;;38.43;34.90;;;23.20;99.90;;;;;;4963131;28;20516;-82
2022/07/21 10:05:09;;;;;;;39.28;35.75;;;22.80;99.90;;;;;;4970189;28;20053;-83
2022/07/21 10:07:47;;;;;;;37.30;33.65;;;22.60;99.90;;;;;;4966364;28;20100;-82
2022/07/21 10:10:14;;;;;;;37.30;33.58;;;22.30;99.90;;;;;;4967461;28;20053;-82
2022/07/21 10:12:40;;;;;;;36.20;32.60;;;22.10;99.90;;;;;;4946767;28;20128;-82
2022/07/21 10:15:07;;;;;;;38.33;34.70;;;21.90;99.90;;;;;;4979629;28;20054;-82
2022/07/21 10:17:33;;;;;;;40.22;36.40;;;21.90;99.90;;;;;;4967004;28;20054;-81
2022/07/21 10:20:03;;;;;;;39.60;35.72;;;21.70;99.90;;;;;;4979660;28;20041;-82
2022/07/21 10:22:50;;;;;;;40.60;36.78;;;21.70;99.90;;;;;;4965013;28;20097;-83
2022/07/21 10:25:17;;;;;;;40.22;36.15;;;21.70;99.90;;;;;;4964601;28;20116;-87
2022/07/21 10:28:21;;;;;;;56.08;50.72;;;21.80;99.90;;;;;;4964274;28;20443;-82
2022/07/21 10:30:50;;;;;;;57.22;51.63;;;21.90;99.90;;;;;;4980281;28;20104;-82
2022/07/21 10:33:19;;;;;;;45.10;40.60;;;22.00;99.90;;;;;;4966790;28;20129;-83
2022/07/21 10:35:47;;;;;;;53.60;48.35;;;22.00;99.90;;;;;;4965858;28;20049;-82
2022/07/21 10:38:28;;;;;;;41.90;37.72;;;22.00;99.90;;;;;;4966830;28;20133;-78
2022/07/21 10:40:55;;;;;;;40.35;36.35;;;22.20;99.90;;;;;;4966390;28;20100;-82
2022/07/21 10:43:24;;;;;;;44.85;40.45;;;22.20;99.90;;;;;;4982822;28;20052;-83
2022/07/21 10:45:51;;;;;;;38.88;35.30;;;22.20;99.90;;;;;;4963356;28;20042;-82
2022/07/21 10:48:36;;;;;;;41.42;37.28;;;22.30;99.90;;;;;;4978248;28;20187;-82
2022/07/21 10:51:16;;;;;;;41.00;37.00;;;22.50;99.90;;;;;;4966693;28;20182;-82
2022/07/21 10:53:47;;;;;;;42.47;38.22;;;22.60;99.90;;;;;;4968270;28;20088;-83
2022/07/21 10:56:31;;;;;;;40.97;37.13;;;22.60;99.90;;;;;;5026126;28;20048;-83
2022/07/21 10:59:00;;;;;;;40.53;36.53;;;22.90;99.90;;;;;;4988300;28;20061;-83
2022/07/21 11:01:27;;;;;;;40.55;36.83;;;23.00;99.90;;;;;;4966995;28;20050;-83
2022/07/21 11:04:22;;;;;;;42.00;37.97;;;23.00;99.90;;;;;;4975618;28;20045;-83
2022/07/21 11:06:50;;;;;;;38.75;35.22;;;23.10;99.90;;;;;;4950393;28;20042;-83
2022/07/21 11:09:19;;;;;;;38.55;34.88;;;23.20;99.90;;;;;;4943620;28;20092;-83
2022/07/21 11:12:04;;;;;;;27.88;25.08;;;23.20;99.90;;;;;;4967739;28;20481;-83
2022/07/21 11:14:43;;;;;;;27.65;25.05;;;23.10;99.90;;;;;;5000592;28;20076;-82
2022/07/21 11:17:24;;;;;;;32.33;29.42;;;22.90;99.90;;;;;;4990082;28;20055;-83
2022/07/21 11:19:52;;;;;;;30.95;27.95;;;22.90;99.90;;;;;;4979372;28;20053;-82
2022/07/21 11:22:22;;;;;;;27.75;25.10;;;22.60;99.90;;;;;;4957387;28;20057;-83
2022/07/21 11:24:56;;;;;;;28.17;25.48;;;22.10;99.90;;;;;;4952213;28;20096;-83
2022/07/21 11:27:25;;;;;;;33.55;26.92;;;21.80;99.90;;;;;;4984762;28;20393;-84
2022/07/21 11:29:57;;;;;;;30.23;27.02;;;21.60;99.90;;;;;;4951859;28;20045;-84
2022/07/21 11:32:24;;;;;;;26.95;22.88;;;21.30;99.90;;;;;;4968363;28;20152;-84
2022/07/21 11:34:58;;;;;;;23.70;21.40;;;21.00;99.90;;;;;;4968931;28;20495;-84
2022/07/21 11:37:32;;;;;;;25.83;23.05;;;20.70;99.90;;;;;;5000483;28;20140;-86
2022/07/21 11:39:58;;;;;;;26.85;24.05;;;20.50;99.90;;;;;;4984752;28;20320;-85
2022/07/21 11:42:27;;;;;;;31.55;27.88;;;20.50;99.90;;;;;;4973949;28;20060;-85
2022/07/21 11:44:53;;;;;;;35.15;31.50;;;20.60;99.90;;;;;;4955148;28;20053;-85
2022/07/21 11:47:25;;;;;;;38.08;34.42;;;20.50;99.90;;;;;;4998154;28;20057;-84
2022/07/21 11:49:56;;;;;;;84.85;75.75;;;20.60;99.90;;;;;;5003252;28;20404;-85
2022/07/21 11:52:31;;;;;;;59.30;53.35;;;20.80;99.90;;;;;;4966987;28;20528;-84
2022/07/21 11:55:00;;;;;;;46.97;42.13;;;21.00;99.90;;;;;;4988246;28;20068;-84
2022/07/21 11:57:29;;;;;;;47.40;42.45;;;21.10;99.90;;;;;;4957743;28;20148;-84
2022/07/21 12:00:00;;;;;;;48.60;43.63;;;21.30;99.90;;;;;;5002683;28;20650;-84
2022/07/21 12:02:30;;;;;;;48.67;43.88;;;21.40;99.90;;;;;;4994690;28;20095;-84
2022/07/21 12:04:58;;;;;;;46.67;41.78;;;21.50;99.90;;;;;;4973761;28;20049;-85
2022/07/21 12:07:40;;;;;;;44.75;40.38;;;21.60;99.90;;;;;;4988320;28;20049;-85
2022/07/21 12:10:26;;;;;;;46.40;41.60;;;21.60;99.90;;;;;;4987545;28;20071;-85
2022/07/21 12:13:04;;;;;;;45.45;40.97;;;21.70;99.90;;;;;;4972847;28;20045;-87
2022/07/21 12:15:39;;;;;;;43.13;38.97;;;21.80;99.90;;;;;;4959692;28;20415;-88
2022/07/21 12:18:17;;;;;;;46.35;41.65;;;21.90;99.90;;;;;;4964633;28;20042;-88
2022/07/21 12:20:47;;;;;;;41.88;38.10;;;22.10;99.90;;;;;;4969839;28;20755;-84
2022/07/21 12:23:28;;;;;;;39.70;35.63;;;22.20;99.90;;;;;;4969670;28;20045;-82
2022/07/21 12:25:56;;;;;;;71.82;64.63;;;22.30;99.90;;;;;;4978921;28;20455;-86
2022/07/21 12:29:01;;;;;;;37.90;34.35;;;22.20;99.90;;;;;;4975792;28;20484;-87
2022/07/21 12:31:31;;;;;;;29.55;26.80;;;22.10;99.90;;;;;;4910060;29;20051;-87
2022/07/21 12:34:09;;;;;;;26.75;24.27;;;21.90;99.90;;;;;;4896143;29;20586;-87
2022/07/21 12:36:37;;;;;;;22.83;20.52;;;21.90;99.90;;;;;;4956574;28;20052;-84
2022/07/21 12:42:26;;;;;;;20.60;18.65;;;21.50;99.90;;;;;;4968195;28;20130;-85
2022/07/21 12:44:52;;;;;;;14.57;13.07;;;21.40;99.90;;;;;;4998391;28;20045;-78
2022/07/21 12:47:21;;;;;;;13.48;12.18;;;21.60;99.90;;;;;;4985543;28;20046;-78
2022/07/21 12:50:14;;;;;;;15.70;14.20;;;21.70;99.90;;;;;;5000063;28;20055;-79
2022/07/21 12:52:40;;;;;;;21.25;19.10;;;22.00;99.90;;;;;;4981894;28;20046;-78